sensor_id;sensor_type;location;lat;lon;timestamp;temperature;humidity
43227;DHT22;28839;52.404;9.808;2023-04-24T00:03:07;12.30;99.90
43227;DHT22;28839;52.404;9.808;2023-04-24T00:10:01;12.20;99.90
43227;DHT22;28839;52.404;9.808;2023-04-24T00:16:56;12.20;99.90
43227;DHT22;28839;52.404;9.808;2023-04-24T00:23:50;12.10;99.90
43227;DHT22;28839;52.404;9.808;2023-04-24T00:30:44;12.00;99.90
43227;DHT22;28839;52.404;9.808;2023-04-24T00:37:40;11.90;99.90
43227;DHT22;28839;52.404;9.808;2023-04-24T00:44:34;11.70;99.90
43227;DHT22;28839;52.404;9.808;2023-04-24T00:51:27;11.80;99.90
43227;DHT22;28839;52.404;9.808;2023-04-24T00:58:24;12.10;99.90
43227;DHT22;28839;52.404;9.808;2023-04-24T01:05:19;11.90;99.90
43227;DHT22;28839;52.404;9.808;2023-04-24T01:12:13;12.00;99.90
43227;DHT22;28839;52.404;9.808;2023-04-24T01:19:10;12.00;99.90
43227;DHT22;28839;52.404;9.808;2023-04-24T01:26:05;12.00;99.90
43227;DHT22;28839;52.404;9.808;2023-04-24T01:32:59;12.00;99.90
43227;DHT22;28839;52.404;9.808;2023-04-24T01:39:53;12.00;99.90
43227;DHT22;28839;52.404;9.808;2023-04-24T01:46:49;11.80;99.90
43227;DHT22;28839;52.404;9.808;2023-04-24T01:53:43;11.80;99.90
43227;DHT22;28839;52.404;9.808;2023-04-24T02:00:37;11.60;99.90
43227;DHT22;28839;52.404;9.808;2023-04-24T02:07:32;11.50;99.90
43227;DHT22;28839;52.404;9.808;2023-04-24T02:14:26;11.30;99.90
43227;DHT22;28839;52.404;9.808;2023-04-24T02:21:20;11.20;99.90
43227;DHT22;28839;52.404;9.808;2023-04-24T02:28:15;10.90;99.90
43227;DHT22;28839;52.404;9.808;2023-04-24T02:35:09;10.80;99.90
43227;DHT22;28839;52.404;9.808;2023-04-24T02:42:03;11.00;99.90
43227;DHT22;28839;52.404;9.808;2023-04-24T02:48:58;10.80;99.90
43227;DHT22;28839;52.404;9.808;2023-04-24T02:55:52;10.80;99.90
43227;DHT22;28839;52.404;9.808;2023-04-24T03:02:46;10.80;99.90
43227;DHT22;28839;52.404;9.808;2023-04-24T03:09:41;10.70;99.90
43227;DHT22;28839;52.404;9.808;2023-04-24T03:16:35;10.50;99.90
43227;DHT22;28839;52.404;9.808;2023-04-24T03:23:29;10.50;99.90
43227;DHT22;28839;52.404;9.808;2023-04-24T03:30:24;10.50;99.90
43227;DHT22;28839;52.404;9.808;2023-04-24T03:37:18;10.80;99.90
43227;DHT22;28839;52.404;9.808;2023-04-24T03:44:12;10.80;99.90
43227;DHT22;28839;52.404;9.808;2023-04-24T03:51:07;10.70;99.90
43227;DHT22;28839;52.404;9.808;2023-04-24T03:58:01;10.60;99.90
43227;DHT22;28839;52.404;9.808;2023-04-24T04:04:55;10.50;99.90
43227;DHT22;28839;52.404;9.808;2023-04-24T04:11:50;10.40;99.90
43227;DHT22;28839;52.404;9.808;2023-04-24T04:18:44;10.00;99.90
43227;DHT22;28839;52.404;9.808;2023-04-24T04:25:38;9.80;99.90
43227;DHT22;28839;52.404;9.808;2023-04-24T04:32:33;9.60;99.90
43227;DHT22;28839;52.404;9.808;2023-04-24T04:39:27;9.50;99.90
43227;DHT22;28839;52.404;9.808;2023-04-24T04:46:22;9.50;99.90
43227;DHT22;28839;52.404;9.808;2023-04-24T04:53:20;9.50;99.90
43227;DHT22;28839;52.404;9.808;2023-04-24T05:00:14;10.00;99.90
43227;DHT22;28839;52.404;9.808;2023-04-24T05:07:08;10.30;99.90
43227;DHT22;28839;52.404;9.808;2023-04-24T05:14:03;10.40;99.90
43227;DHT22;28839;52.404;9.808;2023-04-24T05:20:57;10.60;99.90
43227;DHT22;28839;52.404;9.808;2023-04-24T05:27:51;10.70;99.90
43227;DHT22;28839;52.404;9.808;2023-04-24T05:34:47;10.90;99.90
43227;DHT22;28839;52.404;9.808;2023-04-24T05:41:41;11.10;99.90
43227;DHT22;28839;52.404;9.808;2023-04-24T05:48:34;11.30;99.90
43227;DHT22;28839;52.404;9.808;2023-04-24T05:55:30;11.50;99.90
43227;DHT22;28839;52.404;9.808;2023-04-24T06:02:24;12.00;99.90
43227;DHT22;28839;52.404;9.808;2023-04-24T06:09:20;11.80;99.90
43227;DHT22;28839;52.404;9.808;2023-04-24T06:16:17;12.30;99.90
43227;DHT22;28839;52.404;9.808;2023-04-24T06:23:11;12.00;99.90
43227;DHT22;28839;52.404;9.808;2023-04-24T06:30:06;11.90;99.90
43227;DHT22;28839;52.404;9.808;2023-04-24T06:37:02;11.60;99.90
43227;DHT22;28839;52.404;9.808;2023-04-24T06:43:56;11.50;99.90
43227;DHT22;28839;52.404;9.808;2023-04-24T06:50:49;11.60;99.90
43227;DHT22;28839;52.404;9.808;2023-04-24T06:57:45;11.70;99.90
43227;DHT22;28839;52.404;9.808;2023-04-24T07:04:39;11.70;99.90
43227;DHT22;28839;52.404;9.808;2023-04-24T07:11:32;11.80;99.90
43227;DHT22;28839;52.404;9.808;2023-04-24T07:18:28;11.80;99.90
43227;DHT22;28839;52.404;9.808;2023-04-24T07:25:21;11.80;99.90
43227;DHT22;28839;52.404;9.808;2023-04-24T07:32:15;12.00;99.90
43227;DHT22;28839;52.404;9.808;2023-04-24T07:39:11;11.90;99.90
43227;DHT22;28839;52.404;9.808;2023-04-24T07:46:07;12.50;99.90
43227;DHT22;28839;52.404;9.808;2023-04-24T07:53:02;13.50;99.90
43227;DHT22;28839;52.404;9.808;2023-04-24T07:59:57;13.50;99.90
43227;DHT22;28839;52.404;9.808;2023-04-24T08:06:51;13.60;99.90
43227;DHT22;28839;52.404;9.808;2023-04-24T08:13:45;13.00;99.90
43227;DHT22;28839;52.404;9.808;2023-04-24T08:20:40;13.30;99.90
43227;DHT22;28839;52.404;9.808;2023-04-24T08:27:34;13.60;99.90
43227;DHT22;28839;52.404;9.808;2023-04-24T08:34:29;13.30;99.90
43227;DHT22;28839;52.404;9.808;2023-04-24T08:41:24;13.00;99.90
43227;DHT22;28839;52.404;9.808;2023-04-24T08:48:18;13.20;99.90
43227;DHT22;28839;52.404;9.808;2023-04-24T08:55:13;13.30;99.90
43227;DHT22;28839;52.404;9.808;2023-04-24T09:02:11;13.70;99.90
43227;DHT22;28839;52.404;9.808;2023-04-24T09:09:06;14.00;99.90
43227;DHT22;28839;52.404;9.808;2023-04-24T09:16:01;13.90;99.90
43227;DHT22;28839;52.404;9.808;2023-04-24T09:22:56;13.20;99.90
43227;DHT22;28839;52.404;9.808;2023-04-24T09:29:53;13.10;99.90
43227;DHT22;28839;52.404;9.808;2023-04-24T09:36:48;13.40;99.90
43227;DHT22;28839;52.404;9.808;2023-04-24T09:43:43;12.70;99.90
43227;DHT22;28839;52.404;9.808;2023-04-24T09:50:37;12.50;99.90
43227;DHT22;28839;52.404;9.808;2023-04-24T09:57:31;12.60;99.90
43227;DHT22;28839;52.404;9.808;2023-04-24T10:04:28;12.60;99.90
43227;DHT22;28839;52.404;9.808;2023-04-24T10:11:22;12.50;99.90
43227;DHT22;28839;52.404;9.808;2023-04-24T10:18:17;12.60;99.90
43227;DHT22;28839;52.404;9.808;2023-04-24T10:25:13;12.60;99.90
43227;DHT22;28839;52.404;9.808;2023-04-24T10:32:08;12.80;99.90
43227;DHT22;28839;52.404;9.808;2023-04-24T10:39:07;12.80;99.90
43227;DHT22;28839;52.404;9.808;2023-04-24T10:46:05;12.50;99.90
43227;DHT22;28839;52.404;9.808;2023-04-24T10:53:06;12.10;99.90
43227;DHT22;28839;52.404;9.808;2023-04-24T11:00:19;12.00;99.90
43227;DHT22;28839;52.404;9.808;2023-04-24T11:07:14;12.00;99.90
43227;DHT22;28839;52.404;9.808;2023-04-24T11:14:08;12.10;99.90
43227;DHT22;28839;52.404;9.808;2023-04-24T11:21:10;12.10;99.90
43227;DHT22;28839;52.404;9.808;2023-04-24T11:28:06;12.20;99.90
43227;DHT22;28839;52.404;9.808;2023-04-24T11:35:01;11.90;99.90
43227;DHT22;28839;52.404;9.808;2023-04-24T11:42:02;12.00;99.90
43227;DHT22;28839;52.404;9.808;2023-04-24T11:48:58;12.60;99.90
43227;DHT22;28839;52.404;9.808;2023-04-24T11:55:52;13.20;99.90
43227;DHT22;28839;52.404;9.808;2023-04-24T12:02:46;12.90;99.90
43227;DHT22;28839;52.404;9.808;2023-04-24T12:09:43;12.50;99.90
43227;DHT22;28839;52.404;9.808;2023-04-24T12:16:38;12.70;99.90
43227;DHT22;28839;52.404;9.808;2023-04-24T12:23:35;12.50;99.90
43227;DHT22;28839;52.404;9.808;2023-04-24T12:30:31;12.20;99.90
43227;DHT22;28839;52.404;9.808;2023-04-24T12:37:26;11.90;99.90
43227;DHT22;28839;52.404;9.808;2023-04-24T12:44:20;12.10;99.90
43227;DHT22;28839;52.404;9.808;2023-04-24T12:51:15;11.90;99.90
43227;DHT22;28839;52.404;9.808;2023-04-24T12:58:09;12.10;99.90
43227;DHT22;28839;52.404;9.808;2023-04-24T13:05:03;12.20;99.90
43227;DHT22;28839;52.404;9.808;2023-04-24T13:11:59;11.60;99.90
43227;DHT22;28839;52.404;9.808;2023-04-24T13:18:53;11.30;99.90
43227;DHT22;28839;52.404;9.808;2023-04-24T13:25:47;10.90;99.90
43227;DHT22;28839;52.404;9.808;2023-04-24T13:32:42;10.60;99.90
43227;DHT22;28839;52.404;9.808;2023-04-24T13:39:36;10.40;99.90
43227;DHT22;28839;52.404;9.808;2023-04-24T13:46:30;10.20;99.90
43227;DHT22;28839;52.404;9.808;2023-04-24T13:53:25;10.40;99.90
43227;DHT22;28839;52.404;9.808;2023-04-24T14:00:20;10.10;99.90
43227;DHT22;28839;52.404;9.808;2023-04-24T14:07:14;9.70;99.90
43227;DHT22;28839;52.404;9.808;2023-04-24T14:14:09;9.70;99.90
43227;DHT22;28839;52.404;9.808;2023-04-24T14:21:03;9.40;99.90
43227;DHT22;28839;52.404;9.808;2023-04-24T14:27:57;9.50;99.90
43227;DHT22;28839;52.404;9.808;2023-04-24T14:34:53;9.40;99.90
43227;DHT22;28839;52.404;9.808;2023-04-24T14:41:47;9.10;99.90
43227;DHT22;28839;52.404;9.808;2023-04-24T14:48:40;9.20;99.90
43227;DHT22;28839;52.404;9.808;2023-04-24T14:55:35;9.00;99.90
43227;DHT22;28839;52.404;9.808;2023-04-24T15:02:29;9.00;99.90
43227;DHT22;28839;52.404;9.808;2023-04-24T15:09:24;9.30;99.90
43227;DHT22;28839;52.404;9.808;2023-04-24T15:16:25;9.00;99.90
43227;DHT22;28839;52.404;9.808;2023-04-24T15:23:21;9.00;99.90
43227;DHT22;28839;52.404;9.808;2023-04-24T15:30:17;9.00;99.90
43227;DHT22;28839;52.404;9.808;2023-04-24T15:37:13;9.00;99.90
43227;DHT22;28839;52.404;9.808;2023-04-24T15:44:07;9.30;99.90
43227;DHT22;28839;52.404;9.808;2023-04-24T15:51:01;9.60;99.90
43227;DHT22;28839;52.404;9.808;2023-04-24T15:57:56;9.40;99.90
43227;DHT22;28839;52.404;9.808;2023-04-24T16:04:50;9.40;99.90
43227;DHT22;28839;52.404;9.808;2023-04-24T16:11:44;9.30;99.90
43227;DHT22;28839;52.404;9.808;2023-04-24T16:18:39;9.40;99.90
43227;DHT22;28839;52.404;9.808;2023-04-24T16:25:33;9.50;99.90
43227;DHT22;28839;52.404;9.808;2023-04-24T16:32:27;9.50;99.90
43227;DHT22;28839;52.404;9.808;2023-04-24T16:39:22;9.40;99.90
43227;DHT22;28839;52.404;9.808;2023-04-24T16:46:17;9.40;99.90
43227;DHT22;28839;52.404;9.808;2023-04-24T16:53:11;9.50;99.90
43227;DHT22;28839;52.404;9.808;2023-04-24T17:00:08;9.10;99.90
43227;DHT22;28839;52.404;9.808;2023-04-24T17:07:02;9.10;99.90
43227;DHT22;28839;52.404;9.808;2023-04-24T17:13:56;9.00;99.90
43227;DHT22;28839;52.404;9.808;2023-04-24T17:20:53;8.80;99.90
43227;DHT22;28839;52.404;9.808;2023-04-24T17:27:47;8.70;99.90
43227;DHT22;28839;52.404;9.808;2023-04-24T17:34:41;8.80;99.90
43227;DHT22;28839;52.404;9.808;2023-04-24T17:41:36;8.80;99.90
43227;DHT22;28839;52.404;9.808;2023-04-24T17:48:30;8.80;99.90
43227;DHT22;28839;52.404;9.808;2023-04-24T17:55:23;8.80;99.90
43227;DHT22;28839;52.404;9.808;2023-04-24T18:02:19;8.80;99.90
43227;DHT22;28839;52.404;9.808;2023-04-24T18:09:12;8.90;99.90
43227;DHT22;28839;52.404;9.808;2023-04-24T18:16:07;8.80;99.90
43227;DHT22;28839;52.404;9.808;2023-04-24T18:23:03;8.70;99.90
43227;DHT22;28839;52.404;9.808;2023-04-24T18:29:57;8.70;99.90
43227;DHT22;28839;52.404;9.808;2023-04-24T18:36:51;8.70;99.90
43227;DHT22;28839;52.404;9.808;2023-04-24T18:43:47;8.50;99.90
43227;DHT22;28839;52.404;9.808;2023-04-24T18:50:43;8.50;99.90
43227;DHT22;28839;52.404;9.808;2023-04-24T18:57:37;8.50;99.90
43227;DHT22;28839;52.404;9.808;2023-04-24T19:04:32;8.50;99.90
43227;DHT22;28839;52.404;9.808;2023-04-24T19:11:26;8.30;99.90
43227;DHT22;28839;52.404;9.808;2023-04-24T19:18:20;8.30;99.90
43227;DHT22;28839;52.404;9.808;2023-04-24T19:25:15;8.30;99.90
43227;DHT22;28839;52.404;9.808;2023-04-24T19:32:09;8.20;99.90
43227;DHT22;28839;52.404;9.808;2023-04-24T19:39:03;8.20;99.90
43227;DHT22;28839;52.404;9.808;2023-04-24T19:45:58;8.10;99.90
43227;DHT22;28839;52.404;9.808;2023-04-24T19:52:52;7.90;99.90
43227;DHT22;28839;52.404;9.808;2023-04-24T19:59:46;7.90;99.90
43227;DHT22;28839;52.404;9.808;2023-04-24T20:06:41;7.90;99.90
43227;DHT22;28839;52.404;9.808;2023-04-24T20:13:35;7.80;99.90
43227;DHT22;28839;52.404;9.808;2023-04-24T20:20:29;7.60;99.90
43227;DHT22;28839;52.404;9.808;2023-04-24T20:27:24;7.70;99.90
43227;DHT22;28839;52.404;9.808;2023-04-24T20:34:18;7.70;99.90
43227;DHT22;28839;52.404;9.808;2023-04-24T20:41:12;7.80;99.90
43227;DHT22;28839;52.404;9.808;2023-04-24T20:48:08;7.80;99.90
43227;DHT22;28839;52.404;9.808;2023-04-24T20:55:03;7.80;99.90
43227;DHT22;28839;52.404;9.808;2023-04-24T21:01:57;7.90;99.90
43227;DHT22;28839;52.404;9.808;2023-04-24T21:08:52;7.90;99.90
43227;DHT22;28839;52.404;9.808;2023-04-24T21:15:48;8.00;99.90
43227;DHT22;28839;52.404;9.808;2023-04-24T21:22:41;8.10;99.90
43227;DHT22;28839;52.404;9.808;2023-04-24T21:29:37;8.10;99.90
43227;DHT22;28839;52.404;9.808;2023-04-24T21:36:30;8.10;99.90
43227;DHT22;28839;52.404;9.808;2023-04-24T21:43:25;8.10;99.90
43227;DHT22;28839;52.404;9.808;2023-04-24T21:50:20;8.10;99.90
43227;DHT22;28839;52.404;9.808;2023-04-24T21:57:14;8.20;99.90
43227;DHT22;28839;52.404;9.808;2023-04-24T22:04:08;8.10;99.90
43227;DHT22;28839;52.404;9.808;2023-04-24T22:11:03;8.10;99.90
43227;DHT22;28839;52.404;9.808;2023-04-24T22:17:57;8.10;99.90
43227;DHT22;28839;52.404;9.808;2023-04-24T22:24:52;8.10;99.90
43227;DHT22;28839;52.404;9.808;2023-04-24T22:31:48;8.00;99.90
43227;DHT22;28839;52.404;9.808;2023-04-24T22:38:42;8.00;99.90
43227;DHT22;28839;52.404;9.808;2023-04-24T22:45:36;8.00;99.90
43227;DHT22;28839;52.404;9.808;2023-04-24T22:52:31;7.90;99.90
43227;DHT22;28839;52.404;9.808;2023-04-24T22:59:27;7.90;99.90
43227;DHT22;28839;52.404;9.808;2023-04-24T23:06:23;7.80;99.90
43227;DHT22;28839;52.404;9.808;2023-04-24T23:13:19;7.80;99.90
43227;DHT22;28839;52.404;9.808;2023-04-24T23:20:13;7.70;99.90
43227;DHT22;28839;52.404;9.808;2023-04-24T23:27:07;7.70;99.90
43227;DHT22;28839;52.404;9.808;2023-04-24T23:34:02;7.70;99.90
43227;DHT22;28839;52.404;9.808;2023-04-24T23:40:56;7.70;99.90
43227;DHT22;28839;52.404;9.808;2023-04-24T23:47:50;7.60;99.90
43227;DHT22;28839;52.404;9.808;2023-04-24T23:54:45;7.50;99.90
